sensor_id;sensor_type;location;lat;lon;timestamp;P1;durP1;ratioP1;P2;durP2;ratioP2
13943;SDS011;7044;53.286;8.534;2024-02-26T00:02:16;7.90;;;5.33;;
13943;SDS011;7044;53.286;8.534;2024-02-26T00:04:43;7.80;;;5.00;;
13943;SDS011;7044;53.286;8.534;2024-02-26T00:07:10;8.87;;;5.57;;
13943;SDS011;7044;53.286;8.534;2024-02-26T00:09:37;7.20;;;4.67;;
13943;SDS011;7044;53.286;8.534;2024-02-26T00:12:04;6.70;;;4.93;;
13943;SDS011;7044;53.286;8.534;2024-02-26T00:14:31;7.23;;;5.43;;
13943;SDS011;7044;53.286;8.534;2024-02-26T00:16:58;7.37;;;5.33;;
13943;SDS011;7044;53.286;8.534;2024-02-26T00:19:26;7.27;;;5.17;;
13943;SDS011;7044;53.286;8.534;2024-02-26T00:21:53;8.47;;;4.57;;
13943;SDS011;7044;53.286;8.534;2024-02-26T00:24:20;6.37;;;5.03;;
13943;SDS011;7044;53.286;8.534;2024-02-26T00:26:47;7.80;;;5.50;;
13943;SDS011;7044;53.286;8.534;2024-02-26T00:29:19;14.13;;;5.63;;
13943;SDS011;7044;53.286;8.534;2024-02-26T00:31:46;7.83;;;5.53;;
13943;SDS011;7044;53.286;8.534;2024-02-26T00:34:13;8.13;;;5.77;;
13943;SDS011;7044;53.286;8.534;2024-02-26T00:36:42;8.70;;;5.73;;
13943;SDS011;7044;53.286;8.534;2024-02-26T00:39:08;9.13;;;6.20;;
13943;SDS011;7044;53.286;8.534;2024-02-26T00:41:38;9.10;;;6.27;;
13943;SDS011;7044;53.286;8.534;2024-02-26T00:44:05;9.23;;;6.20;;
13943;SDS011;7044;53.286;8.534;2024-02-26T00:46:32;7.73;;;5.47;;
13943;SDS011;7044;53.286;8.534;2024-02-26T00:48:59;9.20;;;6.07;;
13943;SDS011;7044;53.286;8.534;2024-02-26T00:51:26;8.73;;;5.43;;
13943;SDS011;7044;53.286;8.534;2024-02-26T00:53:55;9.07;;;6.20;;
13943;SDS011;7044;53.286;8.534;2024-02-26T00:56:22;9.17;;;5.60;;
13943;SDS011;7044;53.286;8.534;2024-02-26T00:58:48;7.70;;;5.50;;
13943;SDS011;7044;53.286;8.534;2024-02-26T01:01:15;7.93;;;6.20;;
13943;SDS011;7044;53.286;8.534;2024-02-26T01:03:41;8.00;;;5.67;;
13943;SDS011;7044;53.286;8.534;2024-02-26T01:06:08;8.40;;;5.53;;
13943;SDS011;7044;53.286;8.534;2024-02-26T01:08:36;7.73;;;5.27;;
13943;SDS011;7044;53.286;8.534;2024-02-26T01:11:05;7.37;;;5.53;;
13943;SDS011;7044;53.286;8.534;2024-02-26T01:13:33;7.80;;;5.33;;
13943;SDS011;7044;53.286;8.534;2024-02-26T01:15:59;9.60;;;5.67;;
13943;SDS011;7044;53.286;8.534;2024-02-26T01:18:27;13.33;;;6.50;;
13943;SDS011;7044;53.286;8.534;2024-02-26T01:20:54;8.87;;;5.77;;
13943;SDS011;7044;53.286;8.534;2024-02-26T01:23:21;10.13;;;5.60;;
13943;SDS011;7044;53.286;8.534;2024-02-26T01:25:48;8.83;;;5.53;;
13943;SDS011;7044;53.286;8.534;2024-02-26T01:28:16;9.33;;;5.80;;
13943;SDS011;7044;53.286;8.534;2024-02-26T01:30:43;8.87;;;5.60;;
13943;SDS011;7044;53.286;8.534;2024-02-26T01:33:10;7.73;;;5.17;;
13943;SDS011;7044;53.286;8.534;2024-02-26T01:35:37;6.73;;;4.67;;
13943;SDS011;7044;53.286;8.534;2024-02-26T01:38:04;7.20;;;4.97;;
13943;SDS011;7044;53.286;8.534;2024-02-26T01:40:32;8.30;;;5.87;;
13943;SDS011;7044;53.286;8.534;2024-02-26T01:42:59;9.63;;;5.70;;
13943;SDS011;7044;53.286;8.534;2024-02-26T01:45:27;9.07;;;5.90;;
13943;SDS011;7044;53.286;8.534;2024-02-26T01:47:54;10.07;;;5.63;;
13943;SDS011;7044;53.286;8.534;2024-02-26T01:50:22;8.93;;;6.00;;
13943;SDS011;7044;53.286;8.534;2024-02-26T01:52:50;8.07;;;5.37;;
13943;SDS011;7044;53.286;8.534;2024-02-26T01:55:18;8.30;;;5.40;;
13943;SDS011;7044;53.286;8.534;2024-02-26T01:57:48;8.23;;;5.40;;
13943;SDS011;7044;53.286;8.534;2024-02-26T02:00:17;7.83;;;5.67;;
13943;SDS011;7044;53.286;8.534;2024-02-26T02:02:46;7.83;;;5.70;;
13943;SDS011;7044;53.286;8.534;2024-02-26T02:05:14;7.33;;;5.13;;
13943;SDS011;7044;53.286;8.534;2024-02-26T02:07:42;8.73;;;5.53;;
13943;SDS011;7044;53.286;8.534;2024-02-26T02:10:09;7.87;;;5.37;;
13943;SDS011;7044;53.286;8.534;2024-02-26T02:12:36;9.30;;;5.43;;
13943;SDS011;7044;53.286;8.534;2024-02-26T02:15:05;8.20;;;5.93;;
13943;SDS011;7044;53.286;8.534;2024-02-26T02:17:33;6.73;;;5.03;;
13943;SDS011;7044;53.286;8.534;2024-02-26T02:20:01;9.53;;;5.90;;
13943;SDS011;7044;53.286;8.534;2024-02-26T02:22:30;9.17;;;5.73;;
13943;SDS011;7044;53.286;8.534;2024-02-26T02:24:58;8.73;;;6.17;;
13943;SDS011;7044;53.286;8.534;2024-02-26T02:27:26;8.43;;;6.00;;
13943;SDS011;7044;53.286;8.534;2024-02-26T02:29:53;9.53;;;6.37;;
13943;SDS011;7044;53.286;8.534;2024-02-26T02:32:20;9.43;;;5.87;;
13943;SDS011;7044;53.286;8.534;2024-02-26T02:34:49;10.30;;;6.53;;
13943;SDS011;7044;53.286;8.534;2024-02-26T02:37:16;10.33;;;6.23;;
13943;SDS011;7044;53.286;8.534;2024-02-26T02:39:44;12.23;;;6.23;;
13943;SDS011;7044;53.286;8.534;2024-02-26T02:42:11;9.20;;;5.60;;
13943;SDS011;7044;53.286;8.534;2024-02-26T02:44:38;9.20;;;5.37;;
13943;SDS011;7044;53.286;8.534;2024-02-26T02:47:05;9.37;;;5.90;;
13943;SDS011;7044;53.286;8.534;2024-02-26T02:49:32;7.83;;;5.90;;
13943;SDS011;7044;53.286;8.534;2024-02-26T02:51:59;8.73;;;5.60;;
13943;SDS011;7044;53.286;8.534;2024-02-26T02:54:26;10.97;;;6.30;;
13943;SDS011;7044;53.286;8.534;2024-02-26T02:56:54;9.20;;;6.13;;
13943;SDS011;7044;53.286;8.534;2024-02-26T02:59:21;8.93;;;5.13;;
13943;SDS011;7044;53.286;8.534;2024-02-26T03:01:48;6.50;;;4.87;;
13943;SDS011;7044;53.286;8.534;2024-02-26T03:04:15;9.07;;;6.33;;
13943;SDS011;7044;53.286;8.534;2024-02-26T03:06:42;9.57;;;6.07;;
13943;SDS011;7044;53.286;8.534;2024-02-26T03:09:09;7.37;;;5.40;;
13943;SDS011;7044;53.286;8.534;2024-02-26T03:11:36;11.00;;;6.43;;
13943;SDS011;7044;53.286;8.534;2024-02-26T03:14:05;8.37;;;5.70;;
13943;SDS011;7044;53.286;8.534;2024-02-26T03:16:32;8.97;;;5.67;;
13943;SDS011;7044;53.286;8.534;2024-02-26T03:18:59;12.73;;;6.90;;
13943;SDS011;7044;53.286;8.534;2024-02-26T03:21:26;8.67;;;6.23;;
13943;SDS011;7044;53.286;8.534;2024-02-26T03:23:53;9.30;;;6.27;;
13943;SDS011;7044;53.286;8.534;2024-02-26T03:26:20;11.77;;;6.37;;
13943;SDS011;7044;53.286;8.534;2024-02-26T03:28:47;9.67;;;6.77;;
13943;SDS011;7044;53.286;8.534;2024-02-26T03:31:15;10.23;;;7.00;;
13943;SDS011;7044;53.286;8.534;2024-02-26T03:33:42;10.03;;;6.47;;
13943;SDS011;7044;53.286;8.534;2024-02-26T03:36:10;11.97;;;6.73;;
13943;SDS011;7044;53.286;8.534;2024-02-26T03:38:36;10.80;;;6.67;;
13943;SDS011;7044;53.286;8.534;2024-02-26T03:41:04;9.63;;;6.07;;
13943;SDS011;7044;53.286;8.534;2024-02-26T03:43:30;9.57;;;6.17;;
13943;SDS011;7044;53.286;8.534;2024-02-26T03:45:58;9.37;;;6.17;;
13943;SDS011;7044;53.286;8.534;2024-02-26T03:48:26;10.43;;;6.07;;
13943;SDS011;7044;53.286;8.534;2024-02-26T03:50:53;10.37;;;6.53;;
13943;SDS011;7044;53.286;8.534;2024-02-26T03:53:20;10.93;;;6.83;;
13943;SDS011;7044;53.286;8.534;2024-02-26T03:55:47;12.90;;;7.40;;
13943;SDS011;7044;53.286;8.534;2024-02-26T03:58:14;11.23;;;6.83;;
13943;SDS011;7044;53.286;8.534;2024-02-26T04:00:42;11.57;;;6.77;;
13943;SDS011;7044;53.286;8.534;2024-02-26T04:03:09;10.57;;;6.77;;
13943;SDS011;7044;53.286;8.534;2024-02-26T04:05:37;11.70;;;7.00;;
13943;SDS011;7044;53.286;8.534;2024-02-26T04:08:04;11.30;;;7.37;;
13943;SDS011;7044;53.286;8.534;2024-02-26T04:10:32;12.80;;;8.10;;
13943;SDS011;7044;53.286;8.534;2024-02-26T04:13:00;12.30;;;7.40;;
13943;SDS011;7044;53.286;8.534;2024-02-26T04:15:26;12.70;;;8.13;;
13943;SDS011;7044;53.286;8.534;2024-02-26T04:17:53;13.63;;;7.77;;
13943;SDS011;7044;53.286;8.534;2024-02-26T04:20:20;13.50;;;8.13;;
13943;SDS011;7044;53.286;8.534;2024-02-26T04:22:49;15.70;;;8.63;;
13943;SDS011;7044;53.286;8.534;2024-02-26T04:25:16;16.43;;;8.67;;
13943;SDS011;7044;53.286;8.534;2024-02-26T04:27:43;20.30;;;9.50;;
13943;SDS011;7044;53.286;8.534;2024-02-26T04:30:10;18.97;;;9.73;;
13943;SDS011;7044;53.286;8.534;2024-02-26T04:32:37;18.10;;;9.13;;
13943;SDS011;7044;53.286;8.534;2024-02-26T04:35:04;20.37;;;10.30;;
13943;SDS011;7044;53.286;8.534;2024-02-26T04:37:31;22.03;;;10.17;;
13943;SDS011;7044;53.286;8.534;2024-02-26T04:40:00;25.60;;;11.47;;
13943;SDS011;7044;53.286;8.534;2024-02-26T04:42:27;16.43;;;9.63;;
13943;SDS011;7044;53.286;8.534;2024-02-26T04:44:54;15.30;;;9.03;;
13943;SDS011;7044;53.286;8.534;2024-02-26T04:47:21;18.63;;;9.23;;
13943;SDS011;7044;53.286;8.534;2024-02-26T04:49:49;22.10;;;9.00;;
13943;SDS011;7044;53.286;8.534;2024-02-26T04:52:16;17.73;;;8.67;;
13943;SDS011;7044;53.286;8.534;2024-02-26T04:54:43;26.40;;;9.27;;
13943;SDS011;7044;53.286;8.534;2024-02-26T04:57:11;41.57;;;10.13;;
13943;SDS011;7044;53.286;8.534;2024-02-26T04:59:38;28.30;;;8.87;;
13943;SDS011;7044;53.286;8.534;2024-02-26T05:02:06;22.83;;;9.63;;
13943;SDS011;7044;53.286;8.534;2024-02-26T05:04:32;25.93;;;9.23;;
13943;SDS011;7044;53.286;8.534;2024-02-26T05:06:59;18.60;;;8.73;;
13943;SDS011;7044;53.286;8.534;2024-02-26T05:09:26;17.07;;;9.63;;
13943;SDS011;7044;53.286;8.534;2024-02-26T05:11:53;22.17;;;7.93;;
13943;SDS011;7044;53.286;8.534;2024-02-26T05:14:22;20.60;;;8.33;;
13943;SDS011;7044;53.286;8.534;2024-02-26T05:16:48;16.13;;;9.07;;
13943;SDS011;7044;53.286;8.534;2024-02-26T05:19:15;19.63;;;9.23;;
13943;SDS011;7044;53.286;8.534;2024-02-26T05:21:42;25.63;;;8.77;;
13943;SDS011;7044;53.286;8.534;2024-02-26T05:24:09;17.93;;;8.90;;
13943;SDS011;7044;53.286;8.534;2024-02-26T05:26:36;15.70;;;8.43;;
13943;SDS011;7044;53.286;8.534;2024-02-26T05:29:04;22.57;;;9.50;;
13943;SDS011;7044;53.286;8.534;2024-02-26T05:31:32;17.03;;;9.23;;
13943;SDS011;7044;53.286;8.534;2024-02-26T05:33:59;16.80;;;8.67;;
13943;SDS011;7044;53.286;8.534;2024-02-26T05:36:27;23.63;;;10.23;;
13943;SDS011;7044;53.286;8.534;2024-02-26T05:38:58;16.90;;;9.33;;
13943;SDS011;7044;53.286;8.534;2024-02-26T05:41:25;18.83;;;8.60;;
13943;SDS011;7044;53.286;8.534;2024-02-26T05:43:52;19.07;;;8.73;;
13943;SDS011;7044;53.286;8.534;2024-02-26T05:46:19;17.83;;;8.27;;
13943;SDS011;7044;53.286;8.534;2024-02-26T05:48:51;16.70;;;9.17;;
13943;SDS011;7044;53.286;8.534;2024-02-26T05:51:19;14.47;;;8.20;;
13943;SDS011;7044;53.286;8.534;2024-02-26T05:53:46;13.73;;;8.20;;
13943;SDS011;7044;53.286;8.534;2024-02-26T05:56:18;13.37;;;7.27;;
13943;SDS011;7044;53.286;8.534;2024-02-26T05:58:46;16.00;;;8.17;;
13943;SDS011;7044;53.286;8.534;2024-02-26T06:01:13;13.60;;;7.87;;
13943;SDS011;7044;53.286;8.534;2024-02-26T06:03:41;15.30;;;8.17;;
13943;SDS011;7044;53.286;8.534;2024-02-26T06:06:09;15.30;;;8.47;;
13943;SDS011;7044;53.286;8.534;2024-02-26T06:08:36;17.97;;;8.83;;
13943;SDS011;7044;53.286;8.534;2024-02-26T06:11:04;15.63;;;8.03;;
13943;SDS011;7044;53.286;8.534;2024-02-26T06:13:32;15.00;;;8.43;;
13943;SDS011;7044;53.286;8.534;2024-02-26T06:15:59;16.47;;;8.20;;
13943;SDS011;7044;53.286;8.534;2024-02-26T06:18:26;13.93;;;7.77;;
13943;SDS011;7044;53.286;8.534;2024-02-26T06:20:52;13.00;;;7.83;;
13943;SDS011;7044;53.286;8.534;2024-02-26T06:23:21;13.37;;;8.27;;
13943;SDS011;7044;53.286;8.534;2024-02-26T06:25:48;13.47;;;7.57;;
13943;SDS011;7044;53.286;8.534;2024-02-26T06:28:15;12.03;;;7.37;;
13943;SDS011;7044;53.286;8.534;2024-02-26T06:30:42;12.97;;;7.77;;
13943;SDS011;7044;53.286;8.534;2024-02-26T06:33:09;12.67;;;6.63;;
13943;SDS011;7044;53.286;8.534;2024-02-26T06:35:36;15.23;;;7.87;;
13943;SDS011;7044;53.286;8.534;2024-02-26T06:38:03;13.37;;;6.93;;
13943;SDS011;7044;53.286;8.534;2024-02-26T06:40:31;12.60;;;7.17;;
13943;SDS011;7044;53.286;8.534;2024-02-26T06:42:58;13.50;;;7.40;;
13943;SDS011;7044;53.286;8.534;2024-02-26T06:45:25;12.40;;;6.43;;
13943;SDS011;7044;53.286;8.534;2024-02-26T06:47:52;9.30;;;6.30;;
13943;SDS011;7044;53.286;8.534;2024-02-26T06:50:20;10.70;;;6.60;;
13943;SDS011;7044;53.286;8.534;2024-02-26T06:52:47;8.23;;;5.83;;
13943;SDS011;7044;53.286;8.534;2024-02-26T06:55:14;11.90;;;6.60;;
13943;SDS011;7044;53.286;8.534;2024-02-26T06:57:42;10.97;;;6.27;;
13943;SDS011;7044;53.286;8.534;2024-02-26T07:00:10;10.40;;;6.30;;
13943;SDS011;7044;53.286;8.534;2024-02-26T07:02:40;11.10;;;6.83;;
13943;SDS011;7044;53.286;8.534;2024-02-26T07:05:07;12.87;;;7.27;;
13943;SDS011;7044;53.286;8.534;2024-02-26T07:07:34;12.87;;;6.70;;
13943;SDS011;7044;53.286;8.534;2024-02-26T07:10:02;12.03;;;5.83;;
13943;SDS011;7044;53.286;8.534;2024-02-26T07:12:30;9.33;;;6.10;;
13943;SDS011;7044;53.286;8.534;2024-02-26T07:14:59;9.70;;;6.13;;
13943;SDS011;7044;53.286;8.534;2024-02-26T07:17:27;11.23;;;6.47;;
13943;SDS011;7044;53.286;8.534;2024-02-26T07:19:54;8.50;;;5.40;;
13943;SDS011;7044;53.286;8.534;2024-02-26T07:22:21;8.93;;;6.27;;
13943;SDS011;7044;53.286;8.534;2024-02-26T07:24:49;9.33;;;5.77;;
13943;SDS011;7044;53.286;8.534;2024-02-26T07:27:16;8.70;;;5.80;;
13943;SDS011;7044;53.286;8.534;2024-02-26T07:29:44;10.23;;;6.67;;
13943;SDS011;7044;53.286;8.534;2024-02-26T07:32:13;7.80;;;5.60;;
13943;SDS011;7044;53.286;8.534;2024-02-26T07:34:40;8.03;;;5.97;;
13943;SDS011;7044;53.286;8.534;2024-02-26T07:37:09;11.70;;;5.80;;
13943;SDS011;7044;53.286;8.534;2024-02-26T07:39:36;9.00;;;5.47;;
13943;SDS011;7044;53.286;8.534;2024-02-26T07:42:03;9.47;;;5.43;;
13943;SDS011;7044;53.286;8.534;2024-02-26T07:44:31;10.20;;;5.90;;
13943;SDS011;7044;53.286;8.534;2024-02-26T07:46:59;8.87;;;5.93;;
13943;SDS011;7044;53.286;8.534;2024-02-26T07:49:27;8.37;;;5.83;;
13943;SDS011;7044;53.286;8.534;2024-02-26T07:51:54;8.23;;;6.00;;
13943;SDS011;7044;53.286;8.534;2024-02-26T07:54:23;8.93;;;6.00;;
13943;SDS011;7044;53.286;8.534;2024-02-26T07:56:49;7.97;;;6.23;;
13943;SDS011;7044;53.286;8.534;2024-02-26T07:59:16;8.43;;;5.73;;
13943;SDS011;7044;53.286;8.534;2024-02-26T08:01:43;9.33;;;5.87;;
13943;SDS011;7044;53.286;8.534;2024-02-26T08:04:11;8.13;;;6.07;;
13943;SDS011;7044;53.286;8.534;2024-02-26T08:06:39;9.30;;;6.07;;
13943;SDS011;7044;53.286;8.534;2024-02-26T08:09:06;8.20;;;5.50;;
13943;SDS011;7044;53.286;8.534;2024-02-26T08:11:32;9.63;;;6.03;;
13943;SDS011;7044;53.286;8.534;2024-02-26T08:14:00;8.50;;;5.80;;
13943;SDS011;7044;53.286;8.534;2024-02-26T08:16:27;10.43;;;6.73;;
13943;SDS011;7044;53.286;8.534;2024-02-26T08:18:54;10.70;;;6.33;;
13943;SDS011;7044;53.286;8.534;2024-02-26T08:21:21;8.33;;;5.43;;
13943;SDS011;7044;53.286;8.534;2024-02-26T08:23:49;11.23;;;5.57;;
13943;SDS011;7044;53.286;8.534;2024-02-26T08:26:16;9.07;;;5.70;;
13943;SDS011;7044;53.286;8.534;2024-02-26T08:28:45;7.27;;;5.43;;
13943;SDS011;7044;53.286;8.534;2024-02-26T08:31:14;7.50;;;5.07;;
13943;SDS011;7044;53.286;8.534;2024-02-26T08:33:41;8.03;;;5.40;;
13943;SDS011;7044;53.286;8.534;2024-02-26T08:36:08;8.00;;;5.50;;
13943;SDS011;7044;53.286;8.534;2024-02-26T08:38:35;7.33;;;5.30;;
13943;SDS011;7044;53.286;8.534;2024-02-26T08:41:03;9.30;;;5.43;;
13943;SDS011;7044;53.286;8.534;2024-02-26T08:43:30;7.13;;;5.33;;
13943;SDS011;7044;53.286;8.534;2024-02-26T08:45:57;8.40;;;5.57;;
13943;SDS011;7044;53.286;8.534;2024-02-26T08:48:24;7.43;;;5.43;;
13943;SDS011;7044;53.286;8.534;2024-02-26T08:50:51;9.20;;;5.50;;
13943;SDS011;7044;53.286;8.534;2024-02-26T08:53:19;8.50;;;5.40;;
13943;SDS011;7044;53.286;8.534;2024-02-26T08:55:46;8.60;;;5.90;;
13943;SDS011;7044;53.286;8.534;2024-02-26T08:58:14;9.00;;;5.40;;
13943;SDS011;7044;53.286;8.534;2024-02-26T09:00:41;8.27;;;5.63;;
13943;SDS011;7044;53.286;8.534;2024-02-26T09:03:08;10.30;;;5.27;;
13943;SDS011;7044;53.286;8.534;2024-02-26T09:05:35;6.67;;;5.40;;
13943;SDS011;7044;53.286;8.534;2024-02-26T09:08:02;9.23;;;5.70;;
13943;SDS011;7044;53.286;8.534;2024-02-26T09:10:29;9.80;;;5.67;;
13943;SDS011;7044;53.286;8.534;2024-02-26T09:12:57;7.20;;;5.30;;
13943;SDS011;7044;53.286;8.534;2024-02-26T09:15:25;6.43;;;5.37;;
13943;SDS011;7044;53.286;8.534;2024-02-26T09:17:52;12.23;;;5.93;;
13943;SDS011;7044;53.286;8.534;2024-02-26T09:20:19;10.23;;;5.77;;
13943;SDS011;7044;53.286;8.534;2024-02-26T09:22:46;6.33;;;5.03;;
13943;SDS011;7044;53.286;8.534;2024-02-26T09:25:13;8.37;;;4.50;;
13943;SDS011;7044;53.286;8.534;2024-02-26T09:27:41;7.33;;;4.83;;
13943;SDS011;7044;53.286;8.534;2024-02-26T09:30:09;6.87;;;4.80;;
13943;SDS011;7044;53.286;8.534;2024-02-26T09:32:38;9.60;;;5.40;;
13943;SDS011;7044;53.286;8.534;2024-02-26T09:35:05;6.47;;;5.23;;
13943;SDS011;7044;53.286;8.534;2024-02-26T09:37:33;7.60;;;5.27;;
13943;SDS011;7044;53.286;8.534;2024-02-26T09:40:02;6.93;;;4.93;;
13943;SDS011;7044;53.286;8.534;2024-02-26T09:42:29;7.23;;;5.10;;
13943;SDS011;7044;53.286;8.534;2024-02-26T09:44:59;10.17;;;5.07;;
13943;SDS011;7044;53.286;8.534;2024-02-26T09:47:28;7.23;;;5.57;;
13943;SDS011;7044;53.286;8.534;2024-02-26T09:49:59;10.00;;;5.27;;
13943;SDS011;7044;53.286;8.534;2024-02-26T09:52:27;9.67;;;5.20;;
13943;SDS011;7044;53.286;8.534;2024-02-26T09:54:57;8.97;;;5.33;;
13943;SDS011;7044;53.286;8.534;2024-02-26T09:57:24;8.90;;;5.47;;
13943;SDS011;7044;53.286;8.534;2024-02-26T09:59:53;7.90;;;5.00;;
13943;SDS011;7044;53.286;8.534;2024-02-26T10:02:23;9.00;;;5.67;;
13943;SDS011;7044;53.286;8.534;2024-02-26T10:04:50;8.93;;;5.47;;
13943;SDS011;7044;53.286;8.534;2024-02-26T10:07:20;8.03;;;5.37;;
13943;SDS011;7044;53.286;8.534;2024-02-26T10:09:47;7.57;;;5.70;;
13943;SDS011;7044;53.286;8.534;2024-02-26T10:12:14;9.73;;;6.10;;
13943;SDS011;7044;53.286;8.534;2024-02-26T10:14:42;7.57;;;5.60;;
13943;SDS011;7044;53.286;8.534;2024-02-26T10:17:09;8.50;;;5.60;;
13943;SDS011;7044;53.286;8.534;2024-02-26T10:19:37;10.33;;;5.77;;
13943;SDS011;7044;53.286;8.534;2024-02-26T10:22:04;8.00;;;5.57;;
13943;SDS011;7044;53.286;8.534;2024-02-26T10:24:32;8.77;;;5.63;;
13943;SDS011;7044;53.286;8.534;2024-02-26T10:26:59;7.87;;;5.23;;
13943;SDS011;7044;53.286;8.534;2024-02-26T10:29:28;6.53;;;5.03;;
13943;SDS011;7044;53.286;8.534;2024-02-26T10:31:54;8.30;;;5.77;;
13943;SDS011;7044;53.286;8.534;2024-02-26T10:34:22;8.10;;;5.30;;
13943;SDS011;7044;53.286;8.534;2024-02-26T10:36:50;6.23;;;4.70;;
13943;SDS011;7044;53.286;8.534;2024-02-26T10:39:17;9.13;;;5.37;;
13943;SDS011;7044;53.286;8.534;2024-02-26T10:41:45;11.43;;;4.97;;
13943;SDS011;7044;53.286;8.534;2024-02-26T10:44:12;8.37;;;5.70;;
13943;SDS011;7044;53.286;8.534;2024-02-26T10:46:40;7.87;;;5.03;;
13943;SDS011;7044;53.286;8.534;2024-02-26T10:49:12;8.53;;;5.40;;
13943;SDS011;7044;53.286;8.534;2024-02-26T10:51:40;8.33;;;4.90;;
13943;SDS011;7044;53.286;8.534;2024-02-26T10:54:10;7.20;;;4.63;;
13943;SDS011;7044;53.286;8.534;2024-02-26T10:56:41;7.33;;;4.87;;
13943;SDS011;7044;53.286;8.534;2024-02-26T10:59:10;7.07;;;5.27;;
13943;SDS011;7044;53.286;8.534;2024-02-26T11:01:38;6.17;;;4.50;;
13943;SDS011;7044;53.286;8.534;2024-02-26T11:04:06;8.13;;;5.60;;
13943;SDS011;7044;53.286;8.534;2024-02-26T11:06:34;8.10;;;5.43;;
13943;SDS011;7044;53.286;8.534;2024-02-26T11:09:02;7.90;;;5.60;;
13943;SDS011;7044;53.286;8.534;2024-02-26T11:11:29;6.80;;;5.40;;
13943;SDS011;7044;53.286;8.534;2024-02-26T11:13:59;9.17;;;5.50;;
13943;SDS011;7044;53.286;8.534;2024-02-26T11:16:30;7.60;;;5.20;;
13943;SDS011;7044;53.286;8.534;2024-02-26T11:19:01;8.87;;;5.20;;
13943;SDS011;7044;53.286;8.534;2024-02-26T11:21:29;10.10;;;5.53;;
13943;SDS011;7044;53.286;8.534;2024-02-26T11:24:05;9.33;;;5.53;;
13943;SDS011;7044;53.286;8.534;2024-02-26T11:26:34;7.63;;;5.33;;
13943;SDS011;7044;53.286;8.534;2024-02-26T11:29:05;7.57;;;5.70;;
13943;SDS011;7044;53.286;8.534;2024-02-26T11:31:36;7.60;;;5.20;;
13943;SDS011;7044;53.286;8.534;2024-02-26T11:34:04;6.87;;;5.13;;
13943;SDS011;7044;53.286;8.534;2024-02-26T11:36:33;8.70;;;5.90;;
13943;SDS011;7044;53.286;8.534;2024-02-26T11:39:00;7.87;;;5.63;;
13943;SDS011;7044;53.286;8.534;2024-02-26T11:41:27;9.70;;;5.43;;
13943;SDS011;7044;53.286;8.534;2024-02-26T11:43:57;6.97;;;5.00;;
13943;SDS011;7044;53.286;8.534;2024-02-26T11:46:26;6.83;;;4.77;;
13943;SDS011;7044;53.286;8.534;2024-02-26T11:48:55;8.87;;;5.10;;
13943;SDS011;7044;53.286;8.534;2024-02-26T11:51:27;10.90;;;6.40;;
13943;SDS011;7044;53.286;8.534;2024-02-26T11:53:58;7.53;;;5.47;;
13943;SDS011;7044;53.286;8.534;2024-02-26T11:56:25;9.53;;;5.37;;
13943;SDS011;7044;53.286;8.534;2024-02-26T11:58:56;10.10;;;5.87;;
13943;SDS011;7044;53.286;8.534;2024-02-26T12:01:37;8.23;;;5.60;;
13943;SDS011;7044;53.286;8.534;2024-02-26T12:04:05;9.93;;;5.93;;
13943;SDS011;7044;53.286;8.534;2024-02-26T12:06:40;7.47;;;5.37;;
13943;SDS011;7044;53.286;8.534;2024-02-26T12:09:11;8.63;;;5.13;;
13943;SDS011;7044;53.286;8.534;2024-02-26T12:11:39;12.43;;;5.70;;
13943;SDS011;7044;53.286;8.534;2024-02-26T12:14:08;7.30;;;5.17;;
13943;SDS011;7044;53.286;8.534;2024-02-26T12:16:36;6.77;;;4.90;;
13943;SDS011;7044;53.286;8.534;2024-02-26T12:19:05;8.33;;;5.97;;
13943;SDS011;7044;53.286;8.534;2024-02-26T12:21:34;8.47;;;5.93;;
13943;SDS011;7044;53.286;8.534;2024-02-26T12:24:11;10.63;;;6.33;;
13943;SDS011;7044;53.286;8.534;2024-02-26T12:26:41;8.17;;;5.70;;
13943;SDS011;7044;53.286;8.534;2024-02-26T12:29:08;8.67;;;6.00;;
13943;SDS011;7044;53.286;8.534;2024-02-26T12:31:36;8.60;;;5.93;;
13943;SDS011;7044;53.286;8.534;2024-02-26T12:34:04;9.67;;;6.57;;
13943;SDS011;7044;53.286;8.534;2024-02-26T12:36:34;9.93;;;5.90;;
13943;SDS011;7044;53.286;8.534;2024-02-26T12:39:01;9.90;;;6.33;;
13943;SDS011;7044;53.286;8.534;2024-02-26T12:41:30;10.07;;;6.63;;
13943;SDS011;7044;53.286;8.534;2024-02-26T12:43:58;7.57;;;5.97;;
13943;SDS011;7044;53.286;8.534;2024-02-26T12:46:25;9.40;;;6.67;;
13943;SDS011;7044;53.286;8.534;2024-02-26T12:48:55;9.40;;;6.63;;
13943;SDS011;7044;53.286;8.534;2024-02-26T12:51:25;7.60;;;5.97;;
13943;SDS011;7044;53.286;8.534;2024-02-26T12:53:52;9.80;;;6.40;;
13943;SDS011;7044;53.286;8.534;2024-02-26T12:56:20;9.33;;;6.57;;
13943;SDS011;7044;53.286;8.534;2024-02-26T12:58:48;9.00;;;6.43;;
13943;SDS011;7044;53.286;8.534;2024-02-26T13:01:18;8.63;;;5.73;;
13943;SDS011;7044;53.286;8.534;2024-02-26T13:03:49;9.83;;;6.13;;
13943;SDS011;7044;53.286;8.534;2024-02-26T13:06:17;10.27;;;7.17;;
13943;SDS011;7044;53.286;8.534;2024-02-26T13:08:46;11.13;;;6.57;;
13943;SDS011;7044;53.286;8.534;2024-02-26T13:11:13;8.30;;;6.10;;
13943;SDS011;7044;53.286;8.534;2024-02-26T13:13:40;10.07;;;6.40;;
13943;SDS011;7044;53.286;8.534;2024-02-26T13:16:07;9.43;;;6.60;;
13943;SDS011;7044;53.286;8.534;2024-02-26T13:18:36;10.13;;;6.83;;
13943;SDS011;7044;53.286;8.534;2024-02-26T13:21:09;9.07;;;6.47;;
13943;SDS011;7044;53.286;8.534;2024-02-26T13:23:37;9.03;;;6.23;;
13943;SDS011;7044;53.286;8.534;2024-02-26T13:26:06;10.37;;;6.10;;
13943;SDS011;7044;53.286;8.534;2024-02-26T13:28:34;9.70;;;6.40;;
13943;SDS011;7044;53.286;8.534;2024-02-26T13:31:01;8.90;;;6.47;;
13943;SDS011;7044;53.286;8.534;2024-02-26T13:33:29;8.27;;;5.97;;
13943;SDS011;7044;53.286;8.534;2024-02-26T13:35:57;9.73;;;6.40;;
13943;SDS011;7044;53.286;8.534;2024-02-26T13:38:25;8.27;;;5.57;;
13943;SDS011;7044;53.286;8.534;2024-02-26T13:40:52;9.40;;;6.73;;
13943;SDS011;7044;53.286;8.534;2024-02-26T13:43:21;9.53;;;6.77;;
13943;SDS011;7044;53.286;8.534;2024-02-26T13:45:48;9.67;;;7.03;;
13943;SDS011;7044;53.286;8.534;2024-02-26T13:48:15;11.13;;;6.23;;
13943;SDS011;7044;53.286;8.534;2024-02-26T13:50:42;8.80;;;6.13;;
13943;SDS011;7044;53.286;8.534;2024-02-26T13:53:10;11.17;;;6.53;;
13943;SDS011;7044;53.286;8.534;2024-02-26T13:55:37;8.33;;;5.77;;
13943;SDS011;7044;53.286;8.534;2024-02-26T13:58:07;8.67;;;6.43;;
13943;SDS011;7044;53.286;8.534;2024-02-26T14:00:38;8.57;;;6.70;;
13943;SDS011;7044;53.286;8.534;2024-02-26T14:03:06;10.20;;;6.47;;
13943;SDS011;7044;53.286;8.534;2024-02-26T14:05:33;9.53;;;6.53;;
13943;SDS011;7044;53.286;8.534;2024-02-26T14:08:00;9.60;;;5.97;;
13943;SDS011;7044;53.286;8.534;2024-02-26T14:10:27;11.70;;;7.03;;
13943;SDS011;7044;53.286;8.534;2024-02-26T14:12:55;10.30;;;6.73;;
13943;SDS011;7044;53.286;8.534;2024-02-26T14:15:22;7.97;;;6.07;;
13943;SDS011;7044;53.286;8.534;2024-02-26T14:17:51;9.43;;;6.60;;
13943;SDS011;7044;53.286;8.534;2024-02-26T14:20:21;9.33;;;6.37;;
13943;SDS011;7044;53.286;8.534;2024-02-26T14:22:48;10.47;;;7.40;;
13943;SDS011;7044;53.286;8.534;2024-02-26T14:25:14;8.57;;;6.03;;
13943;SDS011;7044;53.286;8.534;2024-02-26T14:27:41;8.50;;;6.60;;
13943;SDS011;7044;53.286;8.534;2024-02-26T14:30:08;8.50;;;5.93;;
13943;SDS011;7044;53.286;8.534;2024-02-26T14:32:35;8.80;;;6.10;;
13943;SDS011;7044;53.286;8.534;2024-02-26T14:35:05;8.27;;;6.17;;
13943;SDS011;7044;53.286;8.534;2024-02-26T14:37:34;12.53;;;7.13;;
13943;SDS011;7044;53.286;8.534;2024-02-26T14:40:01;10.67;;;6.93;;
13943;SDS011;7044;53.286;8.534;2024-02-26T14:42:28;10.53;;;7.27;;
13943;SDS011;7044;53.286;8.534;2024-02-26T14:44:55;12.13;;;7.43;;
13943;SDS011;7044;53.286;8.534;2024-02-26T14:47:22;8.37;;;5.93;;
13943;SDS011;7044;53.286;8.534;2024-02-26T14:49:49;7.87;;;5.70;;
13943;SDS011;7044;53.286;8.534;2024-02-26T14:52:18;8.93;;;6.33;;
13943;SDS011;7044;53.286;8.534;2024-02-26T14:54:45;8.43;;;6.00;;
13943;SDS011;7044;53.286;8.534;2024-02-26T14:57:12;9.13;;;6.37;;
13943;SDS011;7044;53.286;8.534;2024-02-26T14:59:39;9.57;;;6.77;;